Terminal Aerodrome Forecast
Issued by NWS Charleston, SC

Home | Current Version | Previous Version | Text Only | Print | Product List | Glossary On
Versions: 1 2 3 4 5 6 7 8 9 10 11 12 13 14 15 16 17 18 19 20
000
FTUS42 KCHS 310200 AAA
TAFSAV
TAF AMD
KSAV 310254Z 3103/3124 08006KT P6SM VCSH SCT020 BKN120
     FM310600 07005KT P6SM SCT020 BKN100
     FM311200 10010KT P6SM VCSH SCT020 BKN035=

USA.gov is the U.S. government's official web portal to all federal, state and local government web resources and services.